sensor_id;sensor_type;location;lat;lon;timestamp;P1;durP1;ratioP1;P2;durP2;ratioP2
16506;SDS011;8366;51.020;7.642;2022-08-19T00:01:39;23.90;;;18.85;;
16506;SDS011;8366;51.020;7.642;2022-08-19T00:04:09;21.85;;;18.40;;
16506;SDS011;8366;51.020;7.642;2022-08-19T00:06:36;22.25;;;18.63;;
16506;SDS011;8366;51.020;7.642;2022-08-19T00:09:06;22.95;;;18.38;;
16506;SDS011;8366;51.020;7.642;2022-08-19T00:11:35;22.08;;;19.45;;
16506;SDS011;8366;51.020;7.642;2022-08-19T00:14:03;21.45;;;18.73;;
16506;SDS011;8366;51.020;7.642;2022-08-19T00:16:31;21.65;;;18.48;;
16506;SDS011;8366;51.020;7.642;2022-08-19T00:18:57;21.75;;;18.92;;
16506;SDS011;8366;51.020;7.642;2022-08-19T00:21:25;23.50;;;19.30;;
16506;SDS011;8366;51.020;7.642;2022-08-19T00:23:52;22.80;;;19.50;;
16506;SDS011;8366;51.020;7.642;2022-08-19T00:26:18;22.40;;;19.02;;
16506;SDS011;8366;51.020;7.642;2022-08-19T00:28:47;20.77;;;17.48;;
16506;SDS011;8366;51.020;7.642;2022-08-19T00:31:13;23.10;;;17.63;;
16506;SDS011;8366;51.020;7.642;2022-08-19T00:33:41;19.30;;;16.88;;
16506;SDS011;8366;51.020;7.642;2022-08-19T00:36:07;20.85;;;17.45;;
16506;SDS011;8366;51.020;7.642;2022-08-19T00:38:35;19.40;;;17.17;;
16506;SDS011;8366;51.020;7.642;2022-08-19T00:41:07;18.85;;;16.85;;
16506;SDS011;8366;51.020;7.642;2022-08-19T00:43:35;20.65;;;17.30;;
16506;SDS011;8366;51.020;7.642;2022-08-19T00:46:02;19.05;;;16.90;;
16506;SDS011;8366;51.020;7.642;2022-08-19T00:48:29;19.98;;;17.08;;
16506;SDS011;8366;51.020;7.642;2022-08-19T00:50:56;20.55;;;17.08;;
16506;SDS011;8366;51.020;7.642;2022-08-19T00:53:24;18.25;;;16.30;;
16506;SDS011;8366;51.020;7.642;2022-08-19T00:55:53;18.83;;;16.40;;
16506;SDS011;8366;51.020;7.642;2022-08-19T00:58:22;19.80;;;17.45;;
16506;SDS011;8366;51.020;7.642;2022-08-19T01:00:52;19.98;;;17.40;;
16506;SDS011;8366;51.020;7.642;2022-08-19T01:03:20;18.08;;;16.10;;
16506;SDS011;8366;51.020;7.642;2022-08-19T01:05:48;20.30;;;17.20;;
16506;SDS011;8366;51.020;7.642;2022-08-19T01:08:15;20.33;;;17.63;;
16506;SDS011;8366;51.020;7.642;2022-08-19T01:10:43;21.85;;;17.55;;
16506;SDS011;8366;51.020;7.642;2022-08-19T01:13:13;19.63;;;16.67;;
16506;SDS011;8366;51.020;7.642;2022-08-19T01:15:40;21.67;;;17.27;;
16506;SDS011;8366;51.020;7.642;2022-08-19T01:18:09;20.98;;;16.60;;
16506;SDS011;8366;51.020;7.642;2022-08-19T01:20:39;20.15;;;16.67;;
16506;SDS011;8366;51.020;7.642;2022-08-19T01:23:07;20.02;;;16.95;;
16506;SDS011;8366;51.020;7.642;2022-08-19T01:25:35;19.67;;;16.60;;
16506;SDS011;8366;51.020;7.642;2022-08-19T01:28:04;23.02;;;17.92;;
16506;SDS011;8366;51.020;7.642;2022-08-19T01:30:32;20.70;;;17.58;;
16506;SDS011;8366;51.020;7.642;2022-08-19T01:33:00;20.80;;;17.92;;
16506;SDS011;8366;51.020;7.642;2022-08-19T01:35:28;23.77;;;19.13;;
16506;SDS011;8366;51.020;7.642;2022-08-19T01:37:57;21.73;;;18.60;;
16506;SDS011;8366;51.020;7.642;2022-08-19T01:40:28;24.35;;;19.52;;
16506;SDS011;8366;51.020;7.642;2022-08-19T01:42:55;24.58;;;18.95;;
16506;SDS011;8366;51.020;7.642;2022-08-19T01:45:24;23.52;;;19.17;;
16506;SDS011;8366;51.020;7.642;2022-08-19T01:47:51;21.10;;;18.38;;
16506;SDS011;8366;51.020;7.642;2022-08-19T01:50:18;24.15;;;18.85;;
16506;SDS011;8366;51.020;7.642;2022-08-19T01:52:45;21.10;;;18.27;;
16506;SDS011;8366;51.020;7.642;2022-08-19T01:55:13;20.08;;;17.45;;
16506;SDS011;8366;51.020;7.642;2022-08-19T01:57:42;21.38;;;18.50;;
16506;SDS011;8366;51.020;7.642;2022-08-19T02:00:11;22.63;;;19.02;;
16506;SDS011;8366;51.020;7.642;2022-08-19T02:02:40;23.50;;;19.55;;
16506;SDS011;8366;51.020;7.642;2022-08-19T02:05:07;22.98;;;19.50;;
16506;SDS011;8366;51.020;7.642;2022-08-19T02:07:33;22.45;;;19.60;;
16506;SDS011;8366;51.020;7.642;2022-08-19T02:10:01;21.98;;;18.80;;
16506;SDS011;8366;51.020;7.642;2022-08-19T02:12:28;21.38;;;17.77;;
16506;SDS011;8366;51.020;7.642;2022-08-19T02:14:56;20.35;;;17.77;;
16506;SDS011;8366;51.020;7.642;2022-08-19T02:17:22;22.63;;;17.92;;
16506;SDS011;8366;51.020;7.642;2022-08-19T02:19:49;21.45;;;18.23;;
16506;SDS011;8366;51.020;7.642;2022-08-19T02:22:15;20.30;;;18.00;;
16506;SDS011;8366;51.020;7.642;2022-08-19T02:24:41;20.42;;;17.70;;
16506;SDS011;8366;51.020;7.642;2022-08-19T02:27:08;20.55;;;17.50;;
16506;SDS011;8366;51.020;7.642;2022-08-19T02:29:34;20.52;;;17.20;;
16506;SDS011;8366;51.020;7.642;2022-08-19T02:32:02;19.20;;;16.38;;
16506;SDS011;8366;51.020;7.642;2022-08-19T02:34:29;19.63;;;16.02;;
16506;SDS011;8366;51.020;7.642;2022-08-19T02:36:56;20.60;;;17.27;;
16506;SDS011;8366;51.020;7.642;2022-08-19T02:39:22;18.77;;;16.75;;
16506;SDS011;8366;51.020;7.642;2022-08-19T02:41:48;20.52;;;18.33;;
16506;SDS011;8366;51.020;7.642;2022-08-19T02:44:15;21.80;;;18.45;;
16506;SDS011;8366;51.020;7.642;2022-08-19T02:46:42;23.05;;;18.80;;
16506;SDS011;8366;51.020;7.642;2022-08-19T02:49:11;20.75;;;18.17;;
16506;SDS011;8366;51.020;7.642;2022-08-19T02:51:39;20.17;;;17.63;;
16506;SDS011;8366;51.020;7.642;2022-08-19T02:54:06;22.55;;;18.42;;
16506;SDS011;8366;51.020;7.642;2022-08-19T02:56:34;22.40;;;19.27;;
16506;SDS011;8366;51.020;7.642;2022-08-19T02:59:01;22.77;;;19.08;;
16506;SDS011;8366;51.020;7.642;2022-08-19T03:01:28;23.08;;;18.98;;
16506;SDS011;8366;51.020;7.642;2022-08-19T03:03:56;23.00;;;17.98;;
16506;SDS011;8366;51.020;7.642;2022-08-19T03:06:26;21.27;;;18.98;;
16506;SDS011;8366;51.020;7.642;2022-08-19T03:08:53;23.42;;;19.38;;
16506;SDS011;8366;51.020;7.642;2022-08-19T03:11:21;24.90;;;20.00;;
16506;SDS011;8366;51.020;7.642;2022-08-19T03:13:49;21.55;;;18.98;;
16506;SDS011;8366;51.020;7.642;2022-08-19T03:16:16;24.10;;;19.58;;
16506;SDS011;8366;51.020;7.642;2022-08-19T03:18:42;25.00;;;19.63;;
16506;SDS011;8366;51.020;7.642;2022-08-19T03:21:09;23.00;;;19.67;;
16506;SDS011;8366;51.020;7.642;2022-08-19T03:23:37;25.40;;;19.90;;
16506;SDS011;8366;51.020;7.642;2022-08-19T03:26:04;22.15;;;19.73;;
16506;SDS011;8366;51.020;7.642;2022-08-19T03:28:32;24.33;;;20.38;;
16506;SDS011;8366;51.020;7.642;2022-08-19T03:31:00;24.95;;;19.80;;
16506;SDS011;8366;51.020;7.642;2022-08-19T03:33:28;25.80;;;20.95;;
16506;SDS011;8366;51.020;7.642;2022-08-19T03:35:59;22.63;;;19.25;;
16506;SDS011;8366;51.020;7.642;2022-08-19T03:38:27;22.67;;;19.10;;
16506;SDS011;8366;51.020;7.642;2022-08-19T03:40:55;23.73;;;19.92;;
16506;SDS011;8366;51.020;7.642;2022-08-19T03:43:21;25.08;;;20.17;;
16506;SDS011;8366;51.020;7.642;2022-08-19T03:45:47;22.77;;;19.55;;
16506;SDS011;8366;51.020;7.642;2022-08-19T03:48:16;24.88;;;19.58;;
16506;SDS011;8366;51.020;7.642;2022-08-19T03:50:42;24.75;;;19.70;;
16506;SDS011;8366;51.020;7.642;2022-08-19T03:53:09;25.83;;;19.67;;
16506;SDS011;8366;51.020;7.642;2022-08-19T03:55:38;21.23;;;18.40;;
16506;SDS011;8366;51.020;7.642;2022-08-19T03:58:06;24.90;;;19.35;;
16506;SDS011;8366;51.020;7.642;2022-08-19T04:00:33;22.38;;;18.58;;
16506;SDS011;8366;51.020;7.642;2022-08-19T04:03:00;24.10;;;19.23;;
16506;SDS011;8366;51.020;7.642;2022-08-19T04:05:27;23.08;;;18.98;;
16506;SDS011;8366;51.020;7.642;2022-08-19T04:07:54;21.25;;;18.27;;
16506;SDS011;8366;51.020;7.642;2022-08-19T04:10:23;20.98;;;18.05;;
16506;SDS011;8366;51.020;7.642;2022-08-19T04:12:50;23.05;;;18.13;;
16506;SDS011;8366;51.020;7.642;2022-08-19T04:15:17;22.42;;;18.33;;
16506;SDS011;8366;51.020;7.642;2022-08-19T04:17:44;22.23;;;17.95;;
16506;SDS011;8366;51.020;7.642;2022-08-19T04:20:11;22.27;;;18.85;;
16506;SDS011;8366;51.020;7.642;2022-08-19T04:22:37;20.58;;;17.58;;
16506;SDS011;8366;51.020;7.642;2022-08-19T04:25:04;20.23;;;17.45;;
16506;SDS011;8366;51.020;7.642;2022-08-19T04:27:31;19.08;;;15.70;;
16506;SDS011;8366;51.020;7.642;2022-08-19T04:29:58;18.20;;;15.07;;
16506;SDS011;8366;51.020;7.642;2022-08-19T04:32:26;18.00;;;14.85;;
16506;SDS011;8366;51.020;7.642;2022-08-19T04:34:52;18.75;;;15.27;;
16506;SDS011;8366;51.020;7.642;2022-08-19T04:37:23;19.25;;;15.10;;
16506;SDS011;8366;51.020;7.642;2022-08-19T04:39:51;18.52;;;15.02;;
16506;SDS011;8366;51.020;7.642;2022-08-19T04:42:35;18.80;;;15.10;;
16506;SDS011;8366;51.020;7.642;2022-08-19T04:45:04;19.17;;;14.73;;
16506;SDS011;8366;51.020;7.642;2022-08-19T04:47:33;19.88;;;16.13;;
16506;SDS011;8366;51.020;7.642;2022-08-19T04:49:59;18.58;;;15.70;;
16506;SDS011;8366;51.020;7.642;2022-08-19T04:52:26;20.13;;;16.75;;
16506;SDS011;8366;51.020;7.642;2022-08-19T04:54:52;19.13;;;15.90;;
16506;SDS011;8366;51.020;7.642;2022-08-19T04:57:20;19.13;;;15.55;;
16506;SDS011;8366;51.020;7.642;2022-08-19T04:59:47;20.17;;;15.73;;
16506;SDS011;8366;51.020;7.642;2022-08-19T05:02:13;21.52;;;16.65;;
16506;SDS011;8366;51.020;7.642;2022-08-19T05:04:41;19.80;;;17.02;;
16506;SDS011;8366;51.020;7.642;2022-08-19T05:07:07;24.77;;;18.38;;
16506;SDS011;8366;51.020;7.642;2022-08-19T05:09:35;21.45;;;18.25;;
16506;SDS011;8366;51.020;7.642;2022-08-19T05:12:02;22.27;;;18.13;;
16506;SDS011;8366;51.020;7.642;2022-08-19T05:14:28;24.88;;;19.02;;
16506;SDS011;8366;51.020;7.642;2022-08-19T05:16:55;21.33;;;17.98;;
16506;SDS011;8366;51.020;7.642;2022-08-19T05:19:21;22.50;;;18.33;;
16506;SDS011;8366;51.020;7.642;2022-08-19T05:22:15;20.77;;;17.80;;
16506;SDS011;8366;51.020;7.642;2022-08-19T05:25:00;21.60;;;17.35;;
16506;SDS011;8366;51.020;7.642;2022-08-19T05:27:28;25.50;;;18.45;;
16506;SDS011;8366;51.020;7.642;2022-08-19T05:29:55;20.80;;;17.50;;
16506;SDS011;8366;51.020;7.642;2022-08-19T05:32:21;24.88;;;19.50;;
16506;SDS011;8366;51.020;7.642;2022-08-19T05:34:49;25.58;;;18.55;;
16506;SDS011;8366;51.020;7.642;2022-08-19T05:37:17;23.10;;;19.02;;
16506;SDS011;8366;51.020;7.642;2022-08-19T05:39:43;23.98;;;19.10;;
16506;SDS011;8366;51.020;7.642;2022-08-19T05:42:10;22.98;;;18.88;;
16506;SDS011;8366;51.020;7.642;2022-08-19T05:44:38;23.88;;;19.33;;
16506;SDS011;8366;51.020;7.642;2022-08-19T05:47:09;24.48;;;19.13;;
16506;SDS011;8366;51.020;7.642;2022-08-19T05:49:36;23.35;;;19.20;;
16506;SDS011;8366;51.020;7.642;2022-08-19T05:52:03;23.35;;;18.67;;
16506;SDS011;8366;51.020;7.642;2022-08-19T05:54:32;23.85;;;19.10;;
16506;SDS011;8366;51.020;7.642;2022-08-19T05:57:00;24.48;;;18.42;;
16506;SDS011;8366;51.020;7.642;2022-08-19T05:59:27;27.15;;;19.80;;
16506;SDS011;8366;51.020;7.642;2022-08-19T06:01:54;25.10;;;18.77;;
16506;SDS011;8366;51.020;7.642;2022-08-19T06:04:21;25.10;;;19.08;;
16506;SDS011;8366;51.020;7.642;2022-08-19T06:06:50;27.65;;;19.33;;
16506;SDS011;8366;51.020;7.642;2022-08-19T06:09:17;23.55;;;19.20;;
16506;SDS011;8366;51.020;7.642;2022-08-19T06:11:47;24.40;;;18.17;;
16506;SDS011;8366;51.020;7.642;2022-08-19T06:14:16;24.42;;;18.50;;
16506;SDS011;8366;51.020;7.642;2022-08-19T06:16:44;24.13;;;19.27;;
16506;SDS011;8366;51.020;7.642;2022-08-19T06:19:11;26.23;;;18.92;;
16506;SDS011;8366;51.020;7.642;2022-08-19T06:21:41;22.70;;;18.52;;
16506;SDS011;8366;51.020;7.642;2022-08-19T06:24:09;23.70;;;19.15;;
16506;SDS011;8366;51.020;7.642;2022-08-19T06:26:37;24.80;;;19.48;;
16506;SDS011;8366;51.020;7.642;2022-08-19T06:29:06;24.98;;;19.15;;
16506;SDS011;8366;51.020;7.642;2022-08-19T06:31:34;23.15;;;18.20;;
16506;SDS011;8366;51.020;7.642;2022-08-19T06:34:02;24.83;;;18.23;;
16506;SDS011;8366;51.020;7.642;2022-08-19T06:36:30;23.70;;;17.85;;
16506;SDS011;8366;51.020;7.642;2022-08-19T06:39:01;23.75;;;17.60;;
16506;SDS011;8366;51.020;7.642;2022-08-19T06:41:29;22.58;;;17.73;;
16506;SDS011;8366;51.020;7.642;2022-08-19T06:43:56;28.20;;;18.88;;
16506;SDS011;8366;51.020;7.642;2022-08-19T06:46:24;24.95;;;18.90;;
16506;SDS011;8366;51.020;7.642;2022-08-19T06:48:51;25.10;;;19.33;;
16506;SDS011;8366;51.020;7.642;2022-08-19T06:51:19;23.67;;;18.38;;
16506;SDS011;8366;51.020;7.642;2022-08-19T06:53:46;23.55;;;17.90;;
16506;SDS011;8366;51.020;7.642;2022-08-19T06:56:13;23.92;;;18.63;;
16506;SDS011;8366;51.020;7.642;2022-08-19T06:58:40;23.90;;;18.17;;
16506;SDS011;8366;51.020;7.642;2022-08-19T07:01:07;24.08;;;17.40;;
16506;SDS011;8366;51.020;7.642;2022-08-19T07:03:35;21.25;;;17.50;;
16506;SDS011;8366;51.020;7.642;2022-08-19T07:06:03;23.95;;;18.70;;
16506;SDS011;8366;51.020;7.642;2022-08-19T07:08:30;22.27;;;16.50;;
16506;SDS011;8366;51.020;7.642;2022-08-19T07:10:56;24.45;;;18.42;;
16506;SDS011;8366;51.020;7.642;2022-08-19T07:13:23;21.42;;;17.30;;
16506;SDS011;8366;51.020;7.642;2022-08-19T07:15:50;21.10;;;17.33;;
16506;SDS011;8366;51.020;7.642;2022-08-19T07:18:17;20.15;;;16.42;;
16506;SDS011;8366;51.020;7.642;2022-08-19T07:20:46;18.92;;;16.67;;
16506;SDS011;8366;51.020;7.642;2022-08-19T07:23:13;19.90;;;16.88;;
16506;SDS011;8366;51.020;7.642;2022-08-19T07:25:40;20.73;;;15.95;;
16506;SDS011;8366;51.020;7.642;2022-08-19T07:28:08;20.67;;;16.63;;
16506;SDS011;8366;51.020;7.642;2022-08-19T07:30:35;22.15;;;17.65;;
16506;SDS011;8366;51.020;7.642;2022-08-19T07:33:02;21.35;;;17.33;;
16506;SDS011;8366;51.020;7.642;2022-08-19T07:35:29;24.00;;;18.67;;
16506;SDS011;8366;51.020;7.642;2022-08-19T07:37:58;24.50;;;17.80;;
16506;SDS011;8366;51.020;7.642;2022-08-19T07:40:27;24.67;;;18.63;;
16506;SDS011;8366;51.020;7.642;2022-08-19T07:42:54;25.27;;;18.77;;
16506;SDS011;8366;51.020;7.642;2022-08-19T07:45:21;20.90;;;17.45;;
16506;SDS011;8366;51.020;7.642;2022-08-19T07:47:47;21.60;;;17.48;;
16506;SDS011;8366;51.020;7.642;2022-08-19T07:50:14;24.10;;;18.23;;
16506;SDS011;8366;51.020;7.642;2022-08-19T07:52:40;27.25;;;19.10;;
16506;SDS011;8366;51.020;7.642;2022-08-19T07:55:10;23.30;;;19.02;;
16506;SDS011;8366;51.020;7.642;2022-08-19T07:57:37;26.63;;;19.92;;
16506;SDS011;8366;51.020;7.642;2022-08-19T08:00:04;27.73;;;19.42;;
16506;SDS011;8366;51.020;7.642;2022-08-19T08:02:31;22.95;;;17.63;;
16506;SDS011;8366;51.020;7.642;2022-08-19T08:04:58;21.42;;;17.35;;
16506;SDS011;8366;51.020;7.642;2022-08-19T08:07:41;25.58;;;19.75;;
16506;SDS011;8366;51.020;7.642;2022-08-19T08:10:27;19.35;;;16.35;;
16506;SDS011;8366;51.020;7.642;2022-08-19T08:12:53;19.25;;;17.00;;
16506;SDS011;8366;51.020;7.642;2022-08-19T08:15:20;26.55;;;16.88;;
16506;SDS011;8366;51.020;7.642;2022-08-19T08:17:47;21.83;;;15.15;;
16506;SDS011;8366;51.020;7.642;2022-08-19T08:20:14;17.58;;;15.27;;
16506;SDS011;8366;51.020;7.642;2022-08-19T08:22:42;14.43;;;12.88;;
16506;SDS011;8366;51.020;7.642;2022-08-19T08:25:28;17.38;;;12.25;;
16506;SDS011;8366;51.020;7.642;2022-08-19T08:27:56;16.50;;;11.88;;
16506;SDS011;8366;51.020;7.642;2022-08-19T08:30:25;17.98;;;12.95;;
16506;SDS011;8366;51.020;7.642;2022-08-19T08:32:53;15.75;;;13.52;;
16506;SDS011;8366;51.020;7.642;2022-08-19T08:35:21;17.33;;;14.57;;
16506;SDS011;8366;51.020;7.642;2022-08-19T08:37:49;15.05;;;13.02;;
16506;SDS011;8366;51.020;7.642;2022-08-19T08:40:18;18.17;;;14.10;;
16506;SDS011;8366;51.020;7.642;2022-08-19T08:42:49;19.23;;;14.45;;
16506;SDS011;8366;51.020;7.642;2022-08-19T08:45:20;20.02;;;16.73;;
16506;SDS011;8366;51.020;7.642;2022-08-19T08:47:49;17.17;;;13.98;;
16506;SDS011;8366;51.020;7.642;2022-08-19T08:50:18;19.42;;;16.27;;
16506;SDS011;8366;51.020;7.642;2022-08-19T08:52:49;21.08;;;14.55;;
16506;SDS011;8366;51.020;7.642;2022-08-19T08:55:18;14.02;;;12.45;;
16506;SDS011;8366;51.020;7.642;2022-08-19T08:57:50;15.55;;;12.95;;
16506;SDS011;8366;51.020;7.642;2022-08-19T09:00:21;17.25;;;14.65;;
16506;SDS011;8366;51.020;7.642;2022-08-19T09:02:50;16.08;;;12.45;;
16506;SDS011;8366;51.020;7.642;2022-08-19T09:05:17;13.43;;;11.60;;
16506;SDS011;8366;51.020;7.642;2022-08-19T09:07:47;15.98;;;12.65;;
16506;SDS011;8366;51.020;7.642;2022-08-19T09:10:17;11.93;;;10.70;;
16506;SDS011;8366;51.020;7.642;2022-08-19T09:12:47;18.60;;;12.90;;
16506;SDS011;8366;51.020;7.642;2022-08-19T09:15:24;15.52;;;12.75;;
16506;SDS011;8366;51.020;7.642;2022-08-19T09:17:58;17.85;;;14.38;;
16506;SDS011;8366;51.020;7.642;2022-08-19T09:20:26;19.02;;;14.13;;
16506;SDS011;8366;51.020;7.642;2022-08-19T09:22:53;14.73;;;13.18;;
16506;SDS011;8366;51.020;7.642;2022-08-19T09:25:20;19.10;;;17.08;;
16506;SDS011;8366;51.020;7.642;2022-08-19T09:27:48;19.05;;;16.98;;
16506;SDS011;8366;51.020;7.642;2022-08-19T09:30:19;18.95;;;16.80;;
16506;SDS011;8366;51.020;7.642;2022-08-19T09:32:48;24.15;;;14.77;;
16506;SDS011;8366;51.020;7.642;2022-08-19T09:35:17;21.70;;;17.00;;
16506;SDS011;8366;51.020;7.642;2022-08-19T09:37:44;20.13;;;18.02;;
16506;SDS011;8366;51.020;7.642;2022-08-19T09:40:11;17.08;;;15.30;;
16506;SDS011;8366;51.020;7.642;2022-08-19T09:42:38;15.88;;;14.23;;
16506;SDS011;8366;51.020;7.642;2022-08-19T09:45:05;19.77;;;15.55;;
16506;SDS011;8366;51.020;7.642;2022-08-19T09:47:33;17.10;;;14.30;;
16506;SDS011;8366;51.020;7.642;2022-08-19T09:50:03;15.75;;;13.02;;
16506;SDS011;8366;51.020;7.642;2022-08-19T09:52:30;14.57;;;12.32;;
16506;SDS011;8366;51.020;7.642;2022-08-19T09:54:57;11.20;;;9.77;;
16506;SDS011;8366;51.020;7.642;2022-08-19T09:57:23;16.17;;;11.05;;
16506;SDS011;8366;51.020;7.642;2022-08-19T09:59:50;21.45;;;9.20;;
16506;SDS011;8366;51.020;7.642;2022-08-19T10:02:16;14.18;;;9.13;;
16506;SDS011;8366;51.020;7.642;2022-08-19T10:04:44;12.65;;;8.00;;
16506;SDS011;8366;51.020;7.642;2022-08-19T10:07:29;18.92;;;7.72;;
16506;SDS011;8366;51.020;7.642;2022-08-19T10:09:55;11.10;;;8.88;;
16506;SDS011;8366;51.020;7.642;2022-08-19T10:12:22;8.38;;;7.40;;
16506;SDS011;8366;51.020;7.642;2022-08-19T10:14:48;10.35;;;8.80;;
16506;SDS011;8366;51.020;7.642;2022-08-19T10:17:16;9.43;;;8.52;;
16506;SDS011;8366;51.020;7.642;2022-08-19T10:19:44;11.50;;;8.20;;
16506;SDS011;8366;51.020;7.642;2022-08-19T10:22:10;11.57;;;8.82;;
16506;SDS011;8366;51.020;7.642;2022-08-19T10:24:38;11.20;;;7.82;;
16506;SDS011;8366;51.020;7.642;2022-08-19T10:27:05;13.82;;;7.47;;
16506;SDS011;8366;51.020;7.642;2022-08-19T10:29:32;9.80;;;6.88;;
16506;SDS011;8366;51.020;7.642;2022-08-19T10:31:59;12.18;;;7.43;;
16506;SDS011;8366;51.020;7.642;2022-08-19T10:34:26;10.73;;;7.18;;
16506;SDS011;8366;51.020;7.642;2022-08-19T10:36:54;12.98;;;9.70;;
16506;SDS011;8366;51.020;7.642;2022-08-19T10:39:22;13.43;;;9.35;;
16506;SDS011;8366;51.020;7.642;2022-08-19T10:41:48;14.77;;;9.07;;
16506;SDS011;8366;51.020;7.642;2022-08-19T10:44:15;25.13;;;9.43;;
16506;SDS011;8366;51.020;7.642;2022-08-19T10:46:43;22.75;;;9.32;;
16506;SDS011;8366;51.020;7.642;2022-08-19T10:49:12;12.57;;;11.38;;
16506;SDS011;8366;51.020;7.642;2022-08-19T10:51:38;11.30;;;8.85;;
16506;SDS011;8366;51.020;7.642;2022-08-19T10:54:24;10.70;;;9.23;;
16506;SDS011;8366;51.020;7.642;2022-08-19T10:57:11;10.00;;;8.23;;
16506;SDS011;8366;51.020;7.642;2022-08-19T10:59:36;10.98;;;7.88;;
16506;SDS011;8366;51.020;7.642;2022-08-19T11:02:04;14.18;;;9.70;;
16506;SDS011;8366;51.020;7.642;2022-08-19T11:04:34;11.55;;;9.23;;
16506;SDS011;8366;51.020;7.642;2022-08-19T11:07:01;8.95;;;8.05;;
16506;SDS011;8366;51.020;7.642;2022-08-19T11:09:30;10.40;;;9.25;;
16506;SDS011;8366;51.020;7.642;2022-08-19T11:11:56;10.23;;;8.55;;
16506;SDS011;8366;51.020;7.642;2022-08-19T11:14:23;10.13;;;7.95;;
16506;SDS011;8366;51.020;7.642;2022-08-19T11:16:50;12.63;;;8.45;;
16506;SDS011;8366;51.020;7.642;2022-08-19T11:19:21;9.77;;;8.13;;
16506;SDS011;8366;51.020;7.642;2022-08-19T11:21:48;11.10;;;8.35;;
16506;SDS011;8366;51.020;7.642;2022-08-19T11:24:17;17.92;;;9.10;;
16506;SDS011;8366;51.020;7.642;2022-08-19T11:26:47;14.90;;;11.55;;
16506;SDS011;8366;51.020;7.642;2022-08-19T11:29:15;22.00;;;11.27;;
16506;SDS011;8366;51.020;7.642;2022-08-19T11:31:44;18.10;;;10.02;;
16506;SDS011;8366;51.020;7.642;2022-08-19T11:34:13;12.73;;;10.55;;
16506;SDS011;8366;51.020;7.642;2022-08-19T11:36:41;10.80;;;9.02;;
16506;SDS011;8366;51.020;7.642;2022-08-19T11:39:10;9.98;;;6.90;;
16506;SDS011;8366;51.020;7.642;2022-08-19T11:41:37;11.75;;;8.13;;
16506;SDS011;8366;51.020;7.642;2022-08-19T11:44:05;11.82;;;8.20;;
16506;SDS011;8366;51.020;7.642;2022-08-19T11:46:32;27.70;;;9.20;;
16506;SDS011;8366;51.020;7.642;2022-08-19T11:49:03;21.42;;;9.23;;
16506;SDS011;8366;51.020;7.642;2022-08-19T11:51:44;15.30;;;11.18;;
16506;SDS011;8366;51.020;7.642;2022-08-19T11:54:11;17.70;;;13.73;;
16506;SDS011;8366;51.020;7.642;2022-08-19T11:56:39;14.32;;;10.98;;
16506;SDS011;8366;51.020;7.642;2022-08-19T11:59:08;13.38;;;9.32;;
16506;SDS011;8366;51.020;7.642;2022-08-19T12:01:34;12.95;;;10.50;;
16506;SDS011;8366;51.020;7.642;2022-08-19T12:04:01;16.70;;;9.90;;
16506;SDS011;8366;51.020;7.642;2022-08-19T12:06:29;13.65;;;10.32;;
16506;SDS011;8366;51.020;7.642;2022-08-19T12:09:00;13.30;;;9.13;;
16506;SDS011;8366;51.020;7.642;2022-08-19T12:11:27;15.18;;;9.95;;
16506;SDS011;8366;51.020;7.642;2022-08-19T12:13:54;16.23;;;11.32;;
16506;SDS011;8366;51.020;7.642;2022-08-19T12:16:22;14.68;;;13.07;;
16506;SDS011;8366;51.020;7.642;2022-08-19T12:18:50;12.00;;;10.73;;
16506;SDS011;8366;51.020;7.642;2022-08-19T12:21:18;11.95;;;10.35;;
16506;SDS011;8366;51.020;7.642;2022-08-19T12:23:47;11.40;;;10.30;;
16506;SDS011;8366;51.020;7.642;2022-08-19T12:26:14;46.38;;;11.93;;
16506;SDS011;8366;51.020;7.642;2022-08-19T12:28:41;16.20;;;9.43;;
16506;SDS011;8366;51.020;7.642;2022-08-19T12:31:08;19.05;;;8.98;;
16506;SDS011;8366;51.020;7.642;2022-08-19T12:33:38;11.13;;;8.95;;
16506;SDS011;8366;51.020;7.642;2022-08-19T12:36:06;16.77;;;11.95;;
16506;SDS011;8366;51.020;7.642;2022-08-19T12:38:35;22.63;;;12.10;;
16506;SDS011;8366;51.020;7.642;2022-08-19T12:41:02;11.98;;;10.65;;
16506;SDS011;8366;51.020;7.642;2022-08-19T12:43:31;12.38;;;9.65;;
16506;SDS011;8366;51.020;7.642;2022-08-19T12:45:58;12.57;;;11.15;;
16506;SDS011;8366;51.020;7.642;2022-08-19T12:48:24;10.85;;;9.75;;
16506;SDS011;8366;51.020;7.642;2022-08-19T12:50:52;13.25;;;9.23;;
16506;SDS011;8366;51.020;7.642;2022-08-19T12:53:19;10.80;;;9.13;;
16506;SDS011;8366;51.020;7.642;2022-08-19T12:55:45;12.05;;;9.55;;
16506;SDS011;8366;51.020;7.642;2022-08-19T12:58:12;11.93;;;9.20;;
16506;SDS011;8366;51.020;7.642;2022-08-19T13:00:38;13.18;;;9.48;;
16506;SDS011;8366;51.020;7.642;2022-08-19T13:03:05;11.05;;;8.50;;
16506;SDS011;8366;51.020;7.642;2022-08-19T13:05:32;10.70;;;7.82;;
16506;SDS011;8366;51.020;7.642;2022-08-19T13:08:00;9.05;;;6.63;;
16506;SDS011;8366;51.020;7.642;2022-08-19T13:10:28;7.78;;;6.97;;
16506;SDS011;8366;51.020;7.642;2022-08-19T13:12:59;7.90;;;7.10;;
16506;SDS011;8366;51.020;7.642;2022-08-19T13:15:27;8.27;;;7.40;;
16506;SDS011;8366;51.020;7.642;2022-08-19T13:17:57;9.55;;;7.88;;
16506;SDS011;8366;51.020;7.642;2022-08-19T13:20:23;9.02;;;8.00;;
16506;SDS011;8366;51.020;7.642;2022-08-19T13:22:50;8.02;;;6.43;;
16506;SDS011;8366;51.020;7.642;2022-08-19T13:25:18;9.25;;;7.97;;
16506;SDS011;8366;51.020;7.642;2022-08-19T13:27:45;9.10;;;7.85;;
16506;SDS011;8366;51.020;7.642;2022-08-19T13:30:13;9.57;;;7.95;;
16506;SDS011;8366;51.020;7.642;2022-08-19T13:32:58;13.50;;;8.68;;
16506;SDS011;8366;51.020;7.642;2022-08-19T13:35:39;9.18;;;8.02;;
16506;SDS011;8366;51.020;7.642;2022-08-19T13:38:07;11.00;;;8.57;;
16506;SDS011;8366;51.020;7.642;2022-08-19T13:40:35;19.38;;;8.70;;
16506;SDS011;8366;51.020;7.642;2022-08-19T13:43:03;30.92;;;9.38;;
16506;SDS011;8366;51.020;7.642;2022-08-19T13:45:30;13.90;;;7.85;;
16506;SDS011;8366;51.020;7.642;2022-08-19T13:47:59;8.45;;;6.70;;
16506;SDS011;8366;51.020;7.642;2022-08-19T13:50:27;9.95;;;6.45;;
16506;SDS011;8366;51.020;7.642;2022-08-19T13:52:56;8.70;;;7.45;;
16506;SDS011;8366;51.020;7.642;2022-08-19T13:55:23;9.68;;;8.30;;
16506;SDS011;8366;51.020;7.642;2022-08-19T13:57:51;11.43;;;7.63;;
16506;SDS011;8366;51.020;7.642;2022-08-19T14:00:18;10.38;;;9.32;;
16506;SDS011;8366;51.020;7.642;2022-08-19T14:02:46;13.43;;;7.63;;
16506;SDS011;8366;51.020;7.642;2022-08-19T14:05:14;11.50;;;9.90;;
16506;SDS011;8366;51.020;7.642;2022-08-19T14:07:42;11.70;;;10.27;;
16506;SDS011;8366;51.020;7.642;2022-08-19T14:10:09;10.90;;;8.73;;
16506;SDS011;8366;51.020;7.642;2022-08-19T14:12:37;11.98;;;9.95;;
16506;SDS011;8366;51.020;7.642;2022-08-19T14:15:05;11.15;;;9.25;;
16506;SDS011;8366;51.020;7.642;2022-08-19T14:17:33;13.15;;;9.50;;
16506;SDS011;8366;51.020;7.642;2022-08-19T14:20:02;11.85;;;9.15;;
16506;SDS011;8366;51.020;7.642;2022-08-19T14:22:32;19.35;;;17.33;;
16506;SDS011;8366;51.020;7.642;2022-08-19T14:24:59;10.43;;;9.30;;
16506;SDS011;8366;51.020;7.642;2022-08-19T14:27:25;9.50;;;8.10;;
16506;SDS011;8366;51.020;7.642;2022-08-19T14:29:52;8.77;;;7.88;;
16506;SDS011;8366;51.020;7.642;2022-08-19T14:32:21;9.55;;;8.63;;
16506;SDS011;8366;51.020;7.642;2022-08-19T14:34:47;10.80;;;8.20;;
16506;SDS011;8366;51.020;7.642;2022-08-19T14:37:14;11.48;;;7.53;;
16506;SDS011;8366;51.020;7.642;2022-08-19T14:39:40;10.07;;;7.30;;
16506;SDS011;8366;51.020;7.642;2022-08-19T14:42:07;8.43;;;7.60;;
16506;SDS011;8366;51.020;7.642;2022-08-19T14:44:34;10.57;;;7.60;;